首页
METAR-TAF:

METAR-TAF

机场 :

基加利国际机场

吉佳利, 卢旺达

纬度: 01-58S, 经度: 030-07E, 海拔: 1491米

当前天气观测

该预报发布于52分钟前的16:00 UTC
风速2节,风向
温度 21°C
湿度 83%
气压 1019 hPa
能見度: 9000
散云层高于2300英尺
多云层高于10000英尺

METAR: HRYR 241600Z 10002KT 9000 SCT023 BKN100 21/18 Q1019 NOSIG

时间: 18:52 (16:52 UTC)

预报

该预报发布于5小时和52分钟前的11:00 UTC
预报有效从24日的 12点(UTC)到 25日的 18点(UTC)
风速6节,风向
能见度10公里或以上
多云层高于2300英尺
从 24日的 2100点(UTC)
风速4节,风向西转西北
能見度: 5000
少量云层高于1000英尺
散云层高于2000英尺
轻雾
成为
从 25日的 00点(UTC)到 25日的 04点(UTC)
风速节,风向
能見度: 0300
散云层高于800英尺
多云层高于2000英尺
多云层高于9000英尺
从 25日的 0700点(UTC)
风速3节,风向西
能見度: 8000
多云层高于2500英尺
短暂存在
从 25日的 12点(UTC)到 25日的 16点(UTC)
风速12节,风向东北
能见度10公里或以上
少量云层高于2300英尺, 积雨云.
多云层高于2500英尺
雷暴, 小雨

TAF: HRYR 241100Z 2412/2518 18006KT 9999 BKN023 FM242100 30004KT 5000 BR FEW010 SCT020 BECMG 2500/2504 00000KT 0300 FG SCT008 BKN020 BKN090 FM250700 27003KT 8000 BKN025 TEMPO 2512/2516 04012KT 9999 -TSRA FEW023CB BKN025

超过4000个机场的气象观测和天气预报(METAR&TAF报告)。

可查询的气象台以黄色和红色小点在地图上表示。

将鼠标移到小点上方,可查看气象台名称。

然后点击查看天气观测和预报。

如需切换地图:点击带黑十字的绿色按钮放大地图;点击带横线的绿色按钮缩小地图;或者点击绿色箭头查看邻近地区的地图。


METAR-TAF: